createdAt,value
2024-01-18T00:01:44.017Z,9.37
2024-01-18T00:04:13.726Z,9.17
2024-01-18T00:06:42.070Z,9.50
2024-01-18T00:09:10.503Z,9.43
2024-01-18T00:11:38.749Z,8.40
2024-01-18T00:14:06.946Z,9.20
2024-01-18T00:16:35.903Z,9.13
2024-01-18T00:19:04.335Z,8.57
2024-01-18T00:21:35.132Z,8.10
2024-01-18T00:24:03.425Z,9.30
2024-01-18T00:26:32.634Z,8.20
2024-01-18T00:29:02.618Z,8.90
2024-01-18T00:31:33.009Z,8.97
2024-01-18T00:34:01.359Z,8.23
2024-01-18T00:36:30.647Z,8.10
2024-01-18T00:39:00.638Z,8.30
2024-01-18T00:41:33.884Z,8.87
2024-01-18T00:44:02.186Z,7.80
2024-01-18T00:46:32.915Z,7.70
2024-01-18T00:49:01.394Z,7.50
2024-01-18T00:51:30.683Z,7.67
2024-01-18T00:54:00.317Z,7.67
2024-01-18T00:56:28.560Z,7.47
2024-01-18T00:58:56.859Z,7.77
2024-01-18T01:01:25.190Z,7.57
2024-01-18T01:03:53.553Z,7.23
2024-01-18T01:06:21.845Z,7.33
2024-01-18T01:08:52.776Z,7.10
2024-01-18T01:11:22.874Z,6.57
2024-01-18T01:13:51.689Z,6.40
2024-01-18T01:16:21.881Z,5.90
2024-01-18T01:18:50.760Z,6.20
2024-01-18T01:21:20.119Z,5.70
2024-01-18T01:23:50.278Z,5.07
2024-01-18T01:26:18.741Z,5.00
2024-01-18T01:28:50.737Z,4.77
2024-01-18T01:31:18.994Z,4.93
2024-01-18T01:33:48.187Z,4.93
2024-01-18T01:36:16.487Z,4.67
2024-01-18T01:38:44.712Z,5.47
2024-01-18T01:41:13.029Z,4.80
2024-01-18T01:43:56.165Z,5.00
2024-01-18T01:46:25.738Z,4.63
2024-01-18T01:48:54.914Z,4.57
2024-01-18T01:51:23.422Z,4.70
2024-01-18T01:53:51.792Z,4.33
2024-01-18T01:56:19.986Z,4.30
2024-01-18T01:58:48.777Z,4.07
2024-01-18T02:01:16.996Z,3.77
2024-01-18T02:03:47.022Z,4.47
2024-01-18T02:06:16.386Z,3.77
2024-01-18T02:08:45.066Z,3.43
2024-01-18T02:11:13.407Z,4.00
2024-01-18T02:13:41.697Z,3.63
2024-01-18T02:16:10.736Z,3.40
2024-01-18T02:18:39.119Z,3.90
2024-01-18T02:21:09.766Z,3.80
2024-01-18T02:23:39.105Z,3.83
2024-01-18T02:26:07.934Z,3.90
2024-01-18T02:28:36.153Z,2.80
2024-01-18T02:31:04.407Z,3.27
2024-01-18T02:33:34.299Z,3.53
2024-01-18T02:36:02.918Z,3.43
2024-01-18T02:38:34.140Z,3.57
2024-01-18T02:41:02.594Z,3.93
2024-01-18T02:43:33.529Z,2.97
2024-01-18T02:46:01.937Z,3.23
2024-01-18T02:48:31.720Z,2.87
2024-01-18T02:51:00.182Z,3.20
2024-01-18T02:53:28.558Z,3.30
2024-01-18T02:55:56.830Z,3.10
2024-01-18T02:58:25.119Z,2.90
2024-01-18T03:00:54.761Z,3.00
2024-01-18T03:03:23.167Z,3.33
2024-01-18T03:05:51.919Z,2.90
2024-01-18T03:08:20.185Z,3.50
2024-01-18T03:10:48.504Z,2.43
2024-01-18T03:13:16.729Z,3.30
2024-01-18T03:15:44.954Z,3.20
2024-01-18T03:18:14.782Z,2.93
2024-01-18T03:20:43.091Z,2.90
2024-01-18T03:23:11.327Z,2.43
2024-01-18T03:25:39.600Z,3.33
2024-01-18T03:28:08.259Z,3.10
2024-01-18T03:30:36.534Z,3.37
2024-01-18T03:33:04.939Z,3.30
2024-01-18T03:35:34.837Z,3.20
2024-01-18T03:38:03.627Z,3.07
2024-01-18T03:40:32.582Z,3.10
2024-01-18T03:43:00.898Z,3.10
2024-01-18T03:45:30.469Z,2.73
2024-01-18T03:47:58.928Z,3.10
2024-01-18T03:50:27.238Z,2.97
2024-01-18T03:52:56.761Z,3.10
2024-01-18T03:55:25.003Z,3.90
2024-01-18T03:57:53.223Z,3.07
2024-01-18T04:00:21.829Z,3.40
2024-01-18T04:02:50.025Z,3.00
2024-01-18T04:05:18.324Z,3.33
2024-01-18T04:07:46.547Z,3.47
2024-01-18T04:10:16.126Z,3.07
2024-01-18T04:12:45.084Z,3.20
2024-01-18T04:15:13.526Z,2.90
2024-01-18T04:17:42.910Z,3.07
2024-01-18T04:20:16.505Z,2.90
2024-01-18T04:22:45.755Z,3.10
2024-01-18T04:25:14.046Z,2.90
2024-01-18T04:27:43.778Z,3.20
2024-01-18T04:30:12.766Z,2.83
2024-01-18T04:32:41.381Z,3.57
2024-01-18T04:35:10.176Z,2.97
2024-01-18T04:37:38.529Z,3.07
2024-01-18T04:40:07.471Z,3.10
2024-01-18T04:42:35.791Z,3.30
2024-01-18T04:45:07.864Z,3.30
2024-01-18T04:47:36.388Z,4.67
2024-01-18T04:50:04.974Z,4.07
2024-01-18T04:52:33.637Z,4.20
2024-01-18T04:55:05.587Z,3.47
2024-01-18T04:57:34.153Z,3.67
2024-01-18T05:00:02.697Z,3.50
2024-01-18T05:02:33.475Z,3.03
2024-01-18T05:05:01.916Z,3.60
2024-01-18T05:07:31.432Z,3.50
2024-01-18T05:09:59.780Z,2.87
2024-01-18T05:12:28.063Z,2.67
2024-01-18T05:14:56.458Z,2.50
2024-01-18T05:17:31.349Z,2.53
2024-01-18T05:20:00.996Z,2.50
2024-01-18T05:22:31.484Z,3.77
2024-01-18T05:25:00.499Z,3.67
2024-01-18T05:27:31.439Z,3.70
2024-01-18T05:30:00.011Z,4.90
2024-01-18T05:32:28.352Z,5.17
2024-01-18T05:34:56.690Z,5.63
2024-01-18T05:37:26.292Z,4.43
2024-01-18T05:39:54.701Z,3.20
2024-01-18T05:42:24.266Z,2.60
2024-01-18T05:44:53.436Z,3.10
2024-01-18T05:47:22.411Z,2.90
2024-01-18T05:49:53.401Z,3.03
2024-01-18T05:52:21.654Z,3.40
2024-01-18T05:54:53.137Z,3.33
2024-01-18T05:57:21.414Z,2.73
2024-01-18T05:59:52.801Z,3.10
2024-01-18T06:02:21.679Z,2.43
2024-01-18T06:04:53.203Z,2.60
2024-01-18T06:07:21.635Z,2.40
2024-01-18T06:09:54.204Z,3.03
2024-01-18T06:12:22.492Z,2.50
2024-01-18T06:14:51.050Z,2.67
2024-01-18T06:17:19.301Z,2.40
2024-01-18T06:19:47.666Z,2.63
2024-01-18T06:22:16.078Z,2.80
2024-01-18T06:24:44.379Z,3.20
2024-01-18T06:27:14.606Z,3.07
2024-01-18T06:29:42.936Z,4.27
2024-01-18T06:32:11.146Z,4.17
2024-01-18T06:34:39.797Z,4.80
2024-01-18T06:37:08.136Z,3.97
2024-01-18T06:39:36.394Z,4.27
2024-01-18T06:42:08.635Z,3.33
2024-01-18T06:44:38.292Z,4.00
2024-01-18T06:47:08.205Z,4.30
2024-01-18T06:49:37.669Z,3.90
2024-01-18T06:52:06.152Z,3.20
2024-01-18T06:54:34.426Z,3.33
2024-01-18T06:57:03.427Z,2.77
2024-01-18T06:59:32.784Z,3.57
2024-01-18T07:02:02.488Z,3.60
2024-01-18T07:04:31.744Z,3.70
2024-01-18T07:07:00.102Z,3.77
2024-01-18T07:09:28.404Z,4.17
2024-01-18T07:11:56.632Z,5.20
2024-01-18T07:14:24.799Z,7.00
2024-01-18T07:16:53.471Z,8.27
2024-01-18T07:19:23.091Z,10.30
2024-01-18T07:21:54.785Z,9.77
2024-01-18T07:24:23.826Z,8.33
2024-01-18T07:26:52.649Z,6.07
2024-01-18T07:29:20.935Z,4.43
2024-01-18T07:31:49.687Z,4.37
2024-01-18T07:34:18.205Z,5.37
2024-01-18T07:36:48.322Z,6.50
2024-01-18T07:39:17.009Z,7.93
2024-01-18T07:41:45.345Z,8.30
2024-01-18T07:44:13.569Z,9.10
2024-01-18T07:46:41.847Z,9.40
2024-01-18T07:49:10.181Z,9.17
2024-01-18T07:51:38.592Z,8.37
2024-01-18T07:54:08.387Z,6.90
2024-01-18T07:56:36.955Z,6.50
2024-01-18T07:59:05.213Z,5.10
2024-01-18T08:01:36.279Z,4.43
2024-01-18T08:04:06.860Z,4.70
2024-01-18T08:06:35.415Z,3.40
2024-01-18T08:09:03.811Z,4.00
2024-01-18T08:11:35.607Z,3.80
2024-01-18T08:14:03.884Z,3.63
2024-01-18T08:16:33.420Z,4.10
2024-01-18T08:19:01.801Z,3.13
2024-01-18T08:21:31.654Z,3.80
2024-01-18T08:24:00.048Z,3.07
2024-01-18T08:26:32.008Z,3.83
2024-01-18T08:29:01.641Z,3.23
2024-01-18T08:31:31.601Z,3.63
2024-01-18T08:33:59.843Z,2.90
2024-01-18T08:36:28.148Z,3.23
2024-01-18T08:38:56.555Z,3.07
2024-01-18T08:41:24.920Z,3.20
2024-01-18T08:43:53.169Z,3.37
2024-01-18T08:46:22.829Z,4.07
2024-01-18T08:48:51.916Z,3.73
2024-01-18T08:51:20.270Z,4.70
2024-01-18T08:53:51.742Z,6.63
2024-01-18T08:56:27.124Z,6.83
2024-01-18T08:58:59.183Z,7.37
2024-01-18T09:01:28.898Z,7.23
2024-01-18T09:03:57.366Z,8.33
2024-01-18T09:06:26.303Z,6.60
2024-01-18T09:08:55.774Z,6.43
2024-01-18T09:11:24.036Z,6.43
2024-01-18T09:13:52.821Z,5.30
2024-01-18T09:16:21.138Z,4.43
2024-01-18T09:19:01.297Z,4.33
2024-01-18T09:21:42.849Z,3.00
2024-01-18T09:24:11.397Z,3.60
2024-01-18T09:26:39.722Z,3.07
2024-01-18T09:29:08.067Z,3.27
2024-01-18T09:31:41.864Z,2.63
2024-01-18T09:34:12.985Z,2.17
2024-01-18T09:36:41.686Z,2.67
2024-01-18T09:39:17.166Z,2.80
2024-01-18T09:41:46.134Z,2.63
2024-01-18T09:44:15.426Z,2.20
2024-01-18T09:46:43.850Z,3.07
2024-01-18T09:49:13.893Z,2.10
2024-01-18T09:51:42.583Z,2.83
2024-01-18T09:54:10.879Z,2.23
2024-01-18T09:56:41.565Z,2.47
2024-01-18T09:59:09.832Z,2.13
2024-01-18T10:01:38.303Z,1.90
2024-01-18T10:04:06.837Z,2.07
2024-01-18T10:06:36.712Z,1.80
2024-01-18T10:09:06.749Z,2.13
2024-01-18T10:11:35.117Z,1.50
2024-01-18T10:14:03.503Z,2.00
2024-01-18T10:16:33.533Z,1.53
2024-01-18T10:19:03.224Z,1.30
2024-01-18T10:21:34.434Z,1.10
2024-01-18T10:24:04.952Z,1.10
2024-01-18T10:26:34.338Z,0.90
2024-01-18T10:29:04.506Z,0.83
2024-01-18T10:31:33.730Z,0.90
2024-01-18T10:34:02.069Z,1.40
2024-01-18T10:36:31.824Z,1.23
2024-01-18T10:39:00.031Z,1.33
2024-01-18T10:41:34.658Z,1.33
2024-01-18T10:44:02.894Z,1.10
2024-01-18T10:46:34.226Z,1.17
2024-01-18T10:49:03.214Z,1.27
2024-01-18T10:51:33.028Z,1.10
2024-01-18T10:54:02.208Z,0.67
2024-01-18T10:56:33.636Z,1.33
2024-01-18T10:59:02.923Z,1.30
2024-01-18T11:01:31.877Z,1.07
2024-01-18T11:04:00.690Z,1.00
2024-01-18T11:06:32.181Z,0.90
2024-01-18T11:09:00.673Z,1.40
2024-01-18T11:11:32.319Z,1.33
2024-01-18T11:14:02.252Z,1.50
2024-01-18T11:16:32.927Z,1.40
2024-01-18T11:19:03.410Z,1.23
2024-01-18T11:21:40.248Z,1.63
2024-01-18T11:24:09.006Z,1.30
2024-01-18T11:26:40.975Z,1.57
2024-01-18T11:29:20.454Z,1.30
2024-01-18T11:31:51.107Z,1.23
2024-01-18T11:34:33.438Z,1.10
2024-01-18T11:37:11.473Z,1.63
2024-01-18T11:39:55.493Z,1.33
2024-01-18T11:42:24.681Z,1.53
2024-01-18T11:44:58.134Z,1.30
2024-01-18T11:47:27.131Z,1.30
2024-01-18T11:49:55.702Z,1.30
2024-01-18T11:52:24.312Z,0.80
2024-01-18T11:54:56.121Z,1.00
2024-01-18T11:57:24.969Z,0.90
2024-01-18T11:59:53.446Z,0.80
2024-01-18T12:02:23.727Z,0.73
2024-01-18T12:04:53.170Z,0.90
2024-01-18T12:07:22.645Z,0.80
2024-01-18T12:09:51.501Z,1.00
2024-01-18T12:12:20.298Z,1.10
2024-01-18T12:14:49.783Z,0.90
2024-01-18T12:17:18.562Z,0.90
2024-01-18T12:19:51.349Z,0.57
2024-01-18T12:22:20.528Z,0.70
2024-01-18T12:24:51.225Z,0.73
2024-01-18T12:27:19.794Z,0.70
2024-01-18T12:29:48.231Z,0.60
2024-01-18T12:32:19.154Z,0.60
2024-01-18T12:34:49.628Z,0.63
2024-01-18T12:37:17.976Z,0.70
2024-01-18T12:39:46.284Z,0.60
2024-01-18T12:42:14.622Z,1.00
2024-01-18T12:44:43.512Z,0.63
2024-01-18T12:47:12.221Z,1.03
2024-01-18T12:49:41.507Z,0.70
2024-01-18T12:52:11.366Z,0.70
2024-01-18T12:54:39.741Z,0.87
2024-01-18T12:57:09.469Z,1.07
2024-01-18T12:59:37.843Z,0.80
2024-01-18T13:02:06.481Z,0.70
2024-01-18T13:04:36.631Z,0.80
2024-01-18T13:07:05.752Z,1.13
2024-01-18T13:09:36.070Z,0.70
2024-01-18T13:12:06.217Z,0.80
2024-01-18T13:14:37.450Z,0.60
2024-01-18T13:17:06.115Z,0.90
2024-01-18T13:19:34.893Z,1.10
2024-01-18T13:22:04.995Z,0.60
2024-01-18T13:24:33.655Z,0.90
2024-01-18T13:27:06.377Z,0.90
2024-01-18T13:29:34.996Z,0.73
2024-01-18T13:32:04.268Z,0.70
2024-01-18T13:34:35.451Z,0.87
2024-01-18T13:37:10.593Z,0.70
2024-01-18T13:39:41.246Z,0.97
2024-01-18T13:42:10.998Z,1.00
2024-01-18T13:44:39.294Z,1.37
2024-01-18T13:47:07.621Z,1.00
2024-01-18T13:49:36.962Z,1.33
2024-01-18T13:52:05.365Z,1.27
2024-01-18T13:54:33.793Z,1.03
2024-01-18T13:57:02.210Z,1.27
2024-01-18T13:59:32.588Z,0.80
2024-01-18T14:02:00.854Z,0.90
2024-01-18T14:04:29.323Z,0.87
2024-01-18T14:07:00.097Z,1.40
2024-01-18T14:09:29.392Z,0.80
2024-01-18T14:11:58.612Z,0.70
2024-01-18T14:14:26.856Z,0.83
2024-01-18T14:16:58.607Z,1.03
2024-01-18T14:19:27.035Z,1.20
2024-01-18T14:21:55.461Z,1.00
2024-01-18T14:24:23.813Z,1.00
2024-01-18T14:26:53.802Z,0.80
2024-01-18T14:29:22.046Z,1.13
2024-01-18T14:31:51.104Z,1.10
2024-01-18T14:34:20.732Z,0.93
2024-01-18T14:36:52.027Z,0.80
2024-01-18T14:39:20.386Z,1.00
2024-01-18T14:41:48.668Z,1.07
2024-01-18T14:44:16.963Z,0.90
2024-01-18T14:46:46.711Z,0.70
2024-01-18T14:49:21.056Z,1.13
2024-01-18T14:51:49.881Z,0.90
2024-01-18T14:54:18.555Z,0.90
2024-01-18T14:56:48.130Z,0.70
2024-01-18T14:59:16.649Z,0.70
2024-01-18T15:01:45.442Z,0.80
2024-01-18T15:04:15.004Z,0.80
2024-01-18T15:06:44.834Z,0.83
2024-01-18T15:09:14.198Z,0.90
2024-01-18T15:11:42.509Z,0.90
2024-01-18T15:14:10.923Z,0.73
2024-01-18T15:16:39.152Z,0.90
2024-01-18T15:19:14.286Z,0.70
2024-01-18T15:21:47.658Z,0.60
2024-01-18T15:24:15.981Z,0.67
2024-01-18T15:26:44.497Z,0.70
2024-01-18T15:29:12.796Z,0.93
2024-01-18T15:31:41.176Z,0.90
2024-01-18T15:34:09.621Z,0.80
2024-01-18T15:36:41.011Z,1.07
2024-01-18T15:39:11.956Z,0.93
2024-01-18T15:41:45.802Z,0.70
2024-01-18T15:44:14.888Z,1.10
2024-01-18T15:46:48.793Z,0.97
2024-01-18T15:49:17.236Z,1.00
2024-01-18T15:51:45.576Z,0.67
2024-01-18T15:54:15.276Z,1.00
2024-01-18T15:56:43.542Z,0.70
2024-01-18T15:59:11.742Z,0.80
2024-01-18T16:01:40.029Z,1.00
2024-01-18T16:04:10.461Z,1.00
2024-01-18T16:06:39.080Z,0.80
2024-01-18T16:09:07.781Z,0.80
2024-01-18T16:11:37.396Z,1.23
2024-01-18T16:14:05.660Z,1.40
2024-01-18T16:16:34.215Z,1.20
2024-01-18T16:19:02.915Z,1.60
2024-01-18T16:21:34.084Z,1.90
2024-01-18T16:24:03.398Z,1.30
2024-01-18T16:26:32.653Z,1.33
2024-01-18T16:29:02.322Z,1.63
2024-01-18T16:31:33.445Z,1.50
2024-01-18T16:34:01.793Z,1.50
2024-01-18T16:36:31.068Z,1.93
2024-01-18T16:38:59.378Z,1.37
2024-01-18T16:41:27.746Z,1.60
2024-01-18T16:43:55.998Z,1.00
2024-01-18T16:46:25.724Z,1.10
2024-01-18T16:48:54.032Z,1.30
2024-01-18T16:51:22.895Z,1.40
2024-01-18T16:53:51.874Z,1.67
2024-01-18T16:56:22.203Z,2.07
2024-01-18T16:58:53.124Z,2.50
2024-01-18T17:01:21.502Z,3.40
2024-01-18T17:03:51.104Z,4.00
2024-01-18T17:06:19.454Z,4.03
2024-01-18T17:08:47.997Z,4.73
2024-01-18T17:11:20.662Z,4.30
2024-01-18T17:13:49.783Z,4.30
2024-01-18T17:16:18.138Z,3.37
2024-01-18T17:18:46.634Z,3.47
2024-01-18T17:21:16.307Z,2.47
2024-01-18T17:23:44.808Z,3.20
2024-01-18T17:26:13.460Z,3.20
2024-01-18T17:28:43.842Z,3.17
2024-01-18T17:31:13.369Z,3.17
2024-01-18T17:33:41.943Z,3.30
2024-01-18T17:36:10.412Z,3.53
2024-01-18T17:38:40.106Z,3.33
2024-01-18T17:41:09.021Z,3.57
2024-01-18T17:43:37.253Z,3.60
2024-01-18T17:46:06.911Z,3.33
2024-01-18T17:48:37.658Z,3.63
2024-01-18T17:51:07.156Z,3.70
2024-01-18T17:53:35.462Z,4.30
2024-01-18T17:56:05.325Z,3.70
2024-01-18T17:58:35.795Z,4.20
2024-01-18T18:01:06.866Z,3.33
2024-01-18T18:03:37.738Z,4.37
2024-01-18T18:06:06.165Z,4.13
2024-01-18T18:08:34.582Z,4.07
2024-01-18T18:11:06.670Z,4.77
2024-01-18T18:13:35.285Z,4.40
2024-01-18T18:16:04.134Z,4.33
2024-01-18T18:18:37.429Z,4.47
2024-01-18T18:21:06.929Z,3.97
2024-01-18T18:23:35.189Z,4.60
2024-01-18T18:26:07.970Z,5.27
2024-01-18T18:28:38.713Z,6.17
2024-01-18T18:31:07.119Z,6.33
2024-01-18T18:33:35.487Z,6.60
2024-01-18T18:36:03.976Z,5.93
2024-01-18T18:38:34.385Z,5.20
2024-01-18T18:41:04.056Z,6.30
2024-01-18T18:43:38.582Z,6.00
2024-01-18T18:46:09.018Z,8.33
2024-01-18T18:48:37.668Z,8.20
2024-01-18T18:51:06.842Z,8.23
2024-01-18T18:53:35.357Z,9.97
2024-01-18T18:56:03.689Z,10.27
2024-01-18T18:58:32.720Z,9.40
2024-01-18T19:01:01.817Z,10.03
2024-01-18T19:03:34.304Z,10.13
2024-01-18T19:06:04.711Z,10.53
2024-01-18T19:08:33.595Z,12.50
2024-01-18T19:11:01.860Z,11.00
2024-01-18T19:13:32.709Z,9.80
2024-01-18T19:16:00.984Z,10.17
2024-01-18T19:18:31.585Z,8.53
2024-01-18T19:21:06.806Z,8.23
2024-01-18T19:23:35.156Z,8.83
2024-01-18T19:26:03.798Z,9.10
2024-01-18T19:28:33.516Z,9.03
2024-01-18T19:31:01.793Z,7.97
2024-01-18T19:33:31.257Z,7.43
2024-01-18T19:36:01.848Z,7.73
2024-01-18T19:38:31.574Z,7.23
2024-01-18T19:41:00.139Z,6.47
2024-01-18T19:43:28.436Z,6.47
2024-01-18T19:45:59.452Z,6.90
2024-01-18T19:48:27.754Z,5.13
2024-01-18T19:50:56.146Z,4.53
2024-01-18T19:53:28.456Z,4.57
2024-01-18T19:55:57.165Z,4.17
2024-01-18T19:58:25.424Z,4.20
2024-01-18T20:00:55.592Z,4.10
2024-01-18T20:03:24.074Z,3.93
2024-01-18T20:05:53.443Z,4.67
2024-01-18T20:08:23.325Z,4.13
2024-01-18T20:10:52.877Z,4.30
2024-01-18T20:13:21.148Z,5.17
2024-01-18T20:15:49.813Z,4.97
2024-01-18T20:18:18.229Z,6.13
2024-01-18T20:20:48.199Z,6.10
2024-01-18T20:23:18.182Z,5.73
2024-01-18T20:25:46.811Z,6.40
2024-01-18T20:28:16.523Z,6.00
2024-01-18T20:30:45.630Z,5.53
2024-01-18T20:33:14.033Z,5.87
2024-01-18T20:35:42.491Z,6.07
2024-01-18T20:38:10.995Z,5.67
2024-01-18T20:40:40.007Z,6.33
2024-01-18T20:43:08.671Z,6.77
2024-01-18T20:45:38.309Z,6.80
2024-01-18T20:48:06.870Z,7.17
2024-01-18T20:50:35.147Z,6.83
2024-01-18T20:53:03.493Z,7.10
2024-01-18T20:55:32.607Z,7.70
2024-01-18T20:58:00.898Z,7.27
2024-01-18T21:00:35.359Z,6.37
2024-01-18T21:03:08.242Z,5.87
2024-01-18T21:05:36.736Z,5.70
2024-01-18T21:08:05.098Z,5.10
2024-01-18T21:10:33.575Z,4.73
2024-01-18T21:13:02.034Z,5.17
2024-01-18T21:15:31.621Z,4.93
2024-01-18T21:17:59.874Z,3.93
2024-01-18T21:20:31.698Z,4.70
2024-01-18T21:23:00.096Z,8.20
2024-01-18T21:25:28.316Z,8.53
2024-01-18T21:27:57.240Z,8.97
2024-01-18T21:30:26.436Z,9.37
2024-01-18T21:32:55.178Z,7.03
2024-01-18T21:35:23.651Z,7.10
2024-01-18T21:37:54.590Z,6.60
2024-01-18T21:40:22.988Z,6.47
2024-01-18T21:42:51.893Z,5.87
2024-01-18T21:45:20.599Z,5.80
2024-01-18T21:47:49.839Z,5.67
2024-01-18T21:50:18.496Z,5.17
2024-01-18T21:52:47.021Z,5.67
2024-01-18T21:55:17.128Z,6.10
2024-01-18T21:57:45.472Z,7.93
2024-01-18T22:00:15.552Z,6.67
2024-01-18T22:02:43.955Z,5.80
2024-01-18T22:05:12.434Z,5.40
2024-01-18T22:07:40.786Z,5.30
2024-01-18T22:10:09.580Z,5.20
2024-01-18T22:12:39.169Z,5.07
2024-01-18T22:15:08.088Z,4.80
2024-01-18T22:17:36.846Z,4.40
2024-01-18T22:20:06.153Z,6.70
2024-01-18T22:22:34.581Z,5.57
2024-01-18T22:25:02.911Z,5.07
2024-01-18T22:27:31.835Z,4.50
2024-01-18T22:30:01.465Z,4.23
2024-01-18T22:32:30.702Z,4.23
2024-01-18T22:34:58.984Z,3.83
2024-01-18T22:37:27.263Z,3.93
2024-01-18T22:39:55.505Z,4.17
2024-01-18T22:42:23.730Z,4.40
2024-01-18T22:44:52.009Z,4.37
2024-01-18T22:47:21.772Z,3.97
2024-01-18T22:49:50.792Z,4.17
2024-01-18T22:52:19.061Z,3.40
2024-01-18T22:54:47.340Z,3.37
2024-01-18T22:57:15.626Z,3.97
2024-01-18T22:59:43.921Z,4.60
2024-01-18T23:02:12.127Z,4.53
2024-01-18T23:04:41.733Z,6.03
2024-01-18T23:07:09.939Z,6.17
2024-01-18T23:09:38.337Z,6.20
2024-01-18T23:12:06.929Z,7.23
2024-01-18T23:14:35.241Z,8.80
2024-01-18T23:17:03.627Z,6.47
2024-01-18T23:19:32.622Z,5.73
2024-01-18T23:22:02.345Z,4.30
2024-01-18T23:24:32.705Z,7.13
2024-01-18T23:27:00.992Z,6.70
2024-01-18T23:29:31.665Z,5.67
2024-01-18T23:31:59.978Z,5.53
2024-01-18T23:34:28.291Z,5.20
2024-01-18T23:36:56.960Z,4.83
2024-01-18T23:39:26.611Z,3.83
2024-01-18T23:41:54.856Z,3.20
2024-01-18T23:44:23.306Z,3.30
2024-01-18T23:46:54.414Z,3.10
2024-01-18T23:49:22.685Z,2.70
2024-01-18T23:51:50.906Z,2.60
2024-01-18T23:54:19.186Z,2.60
2024-01-18T23:56:48.961Z,2.60
2024-01-18T23:59:17.841Z,2.30
